sensor_id;sensor_type;location;lat;lon;timestamp;pressure;altitude;pressure_sealevel;temperature;humidity
61474;BME280;53694;49.784;30.150;2023-08-08T00:00:49;99138.27;;;17.69;72.35
61474;BME280;53694;49.784;30.150;2023-08-08T00:01:50;99133.16;;;17.91;71.62
61474;BME280;53694;49.784;30.150;2023-08-08T00:02:52;99131.57;;;18.13;71.05
61474;BME280;53694;49.784;30.150;2023-08-08T00:03:53;99127.99;;;18.36;70.21
61474;BME280;53694;49.784;30.150;2023-08-08T00:04:55;99129.92;;;18.59;69.94
61474;BME280;53694;49.784;30.150;2023-08-08T00:05:57;99126.32;;;18.82;69.03
61474;BME280;53694;49.784;30.150;2023-08-08T00:06:58;99135.41;;;19.03;68.29
61474;BME280;53694;49.784;30.150;2023-08-08T00:08:00;99127.10;;;19.19;67.86
61474;BME280;53694;49.784;30.150;2023-08-08T00:09:01;99119.53;;;19.19;67.18
61474;BME280;53694;49.784;30.150;2023-08-08T00:10:03;99124.13;;;19.10;67.15
61474;BME280;53694;49.784;30.150;2023-08-08T00:11:05;99130.02;;;18.95;67.17
61474;BME280;53694;49.784;30.150;2023-08-08T00:12:07;99128.02;;;18.76;67.39
61474;BME280;53694;49.784;30.150;2023-08-08T00:13:08;99124.80;;;18.58;67.94
61474;BME280;53694;49.784;30.150;2023-08-08T00:14:10;99122.84;;;18.35;68.51
61474;BME280;53694;49.784;30.150;2023-08-08T00:15:12;99129.61;;;18.14;69.50
61474;BME280;53694;49.784;30.150;2023-08-08T00:16:13;99132.33;;;17.94;70.30
61474;BME280;53694;49.784;30.150;2023-08-08T00:17:15;99123.52;;;17.76;71.18
61474;BME280;53694;49.784;30.150;2023-08-08T00:18:16;99136.45;;;17.59;72.07
61474;BME280;53694;49.784;30.150;2023-08-08T00:19:18;99137.44;;;17.45;72.56
61474;BME280;53694;49.784;30.150;2023-08-08T00:20:20;99140.55;;;17.51;72.80
61474;BME280;53694;49.784;30.150;2023-08-08T00:21:21;99141.52;;;17.64;72.60
61474;BME280;53694;49.784;30.150;2023-08-08T00:22:23;99140.83;;;17.83;72.11
61474;BME280;53694;49.784;30.150;2023-08-08T00:23:24;99140.05;;;18.06;71.28
61474;BME280;53694;49.784;30.150;2023-08-08T00:24:26;99137.61;;;18.32;70.88
61474;BME280;53694;49.784;30.150;2023-08-08T00:25:28;99143.05;;;18.59;70.07
61474;BME280;53694;49.784;30.150;2023-08-08T00:26:29;99132.66;;;18.83;69.10
61474;BME280;53694;49.784;30.150;2023-08-08T00:27:31;99142.12;;;19.05;67.90
61474;BME280;53694;49.784;30.150;2023-08-08T00:28:32;99142.88;;;19.26;66.97
61474;BME280;53694;49.784;30.150;2023-08-08T00:29:34;99137.41;;;19.38;66.42
61474;BME280;53694;49.784;30.150;2023-08-08T00:30:35;99140.90;;;19.42;65.77
61474;BME280;53694;49.784;30.150;2023-08-08T00:31:37;99130.77;;;19.32;65.64
61474;BME280;53694;49.784;30.150;2023-08-08T00:32:38;99135.97;;;19.14;65.99
61474;BME280;53694;49.784;30.150;2023-08-08T00:33:40;99141.99;;;18.92;66.42
61474;BME280;53694;49.784;30.150;2023-08-08T00:34:41;99145.66;;;18.69;66.87
61474;BME280;53694;49.784;30.150;2023-08-08T00:35:44;99148.83;;;18.48;67.69
61474;BME280;53694;49.784;30.150;2023-08-08T00:36:45;99150.78;;;18.28;68.81
61474;BME280;53694;49.784;30.150;2023-08-08T00:37:47;99144.83;;;18.06;69.91
61474;BME280;53694;49.784;30.150;2023-08-08T00:38:48;99153.88;;;17.86;70.38
61474;BME280;53694;49.784;30.150;2023-08-08T00:39:50;99145.81;;;17.68;70.68
61474;BME280;53694;49.784;30.150;2023-08-08T00:40:51;99150.00;;;17.53;71.30
61474;BME280;53694;49.784;30.150;2023-08-08T00:41:53;99139.43;;;17.44;72.15
61474;BME280;53694;49.784;30.150;2023-08-08T00:42:54;99137.39;;;17.48;72.20
61474;BME280;53694;49.784;30.150;2023-08-08T00:43:56;99145.86;;;17.65;72.09
61474;BME280;53694;49.784;30.150;2023-08-08T00:44:57;99137.99;;;17.87;71.61
61474;BME280;53694;49.784;30.150;2023-08-08T00:45:59;99149.11;;;18.10;70.92
61474;BME280;53694;49.784;30.150;2023-08-08T00:47:01;99149.80;;;18.38;70.20
61474;BME280;53694;49.784;30.150;2023-08-08T00:48:02;99144.12;;;18.65;69.06
61474;BME280;53694;49.784;30.150;2023-08-08T00:49:04;99140.06;;;18.89;68.06
61474;BME280;53694;49.784;30.150;2023-08-08T00:50:07;99147.95;;;19.11;67.20
61474;BME280;53694;49.784;30.150;2023-08-08T00:51:09;99141.31;;;19.25;66.56
61474;BME280;53694;49.784;30.150;2023-08-08T00:52:11;99142.50;;;19.23;66.13
61474;BME280;53694;49.784;30.150;2023-08-08T00:53:13;99147.09;;;19.14;66.13
61474;BME280;53694;49.784;30.150;2023-08-08T00:54:16;99141.14;;;18.95;66.27
61474;BME280;53694;49.784;30.150;2023-08-08T00:55:18;99141.22;;;18.72;66.79
61474;BME280;53694;49.784;30.150;2023-08-08T00:56:20;99145.67;;;18.46;67.38
61474;BME280;53694;49.784;30.150;2023-08-08T00:57:21;99146.13;;;18.21;68.15
61474;BME280;53694;49.784;30.150;2023-08-08T00:58:24;99141.79;;;17.96;68.97
61474;BME280;53694;49.784;30.150;2023-08-08T00:59:25;99147.33;;;17.73;69.70
61474;BME280;53694;49.784;30.150;2023-08-08T01:00:28;99138.11;;;17.53;70.50
61474;BME280;53694;49.784;30.150;2023-08-08T01:01:30;99138.82;;;17.33;71.17
61474;BME280;53694;49.784;30.150;2023-08-08T01:02:31;99139.05;;;17.15;71.72
61474;BME280;53694;49.784;30.150;2023-08-08T01:03:32;99136.01;;;17.06;72.33
61474;BME280;53694;49.784;30.150;2023-08-08T01:04:36;99133.97;;;17.10;72.63
61474;BME280;53694;49.784;30.150;2023-08-08T01:05:51;99137.70;;;17.27;72.63
61474;BME280;53694;49.784;30.150;2023-08-08T01:08:07;99132.09;;;17.85;71.60
61474;BME280;53694;49.784;30.150;2023-08-08T01:09:13;99136.23;;;18.20;70.67
61474;BME280;53694;49.784;30.150;2023-08-08T01:10:17;99138.48;;;18.48;69.57
61474;BME280;53694;49.784;30.150;2023-08-08T01:11:19;99139.15;;;18.76;68.60
61474;BME280;53694;49.784;30.150;2023-08-08T01:12:23;99137.48;;;18.98;67.53
61474;BME280;53694;49.784;30.150;2023-08-08T01:13:28;99142.38;;;19.11;66.80
61474;BME280;53694;49.784;30.150;2023-08-08T01:14:32;99127.35;;;19.08;66.42
61474;BME280;53694;49.784;30.150;2023-08-08T01:15:34;99133.13;;;18.97;66.52
61474;BME280;53694;49.784;30.150;2023-08-08T01:16:37;99136.73;;;18.78;66.62
61474;BME280;53694;49.784;30.150;2023-08-08T01:17:39;99139.92;;;18.57;67.17
61474;BME280;53694;49.784;30.150;2023-08-08T01:18:42;99139.95;;;18.33;67.71
61474;BME280;53694;49.784;30.150;2023-08-08T01:19:44;99144.34;;;18.11;68.58
61474;BME280;53694;49.784;30.150;2023-08-08T01:20:46;99145.44;;;17.93;69.28
61474;BME280;53694;49.784;30.150;2023-08-08T01:21:48;99144.14;;;17.74;69.61
61474;BME280;53694;49.784;30.150;2023-08-08T01:23:13;99142.05;;;17.55;70.36
61474;BME280;53694;49.784;30.150;2023-08-08T01:24:20;99136.40;;;17.35;71.11
61474;BME280;53694;49.784;30.150;2023-08-08T01:25:22;99147.06;;;17.10;72.16
61474;BME280;53694;49.784;30.150;2023-08-08T01:26:25;99146.80;;;17.01;72.82
61474;BME280;53694;49.784;30.150;2023-08-08T01:27:28;99143.94;;;17.08;73.31
61474;BME280;53694;49.784;30.150;2023-08-08T01:28:29;99151.58;;;17.27;73.00
61474;BME280;53694;49.784;30.150;2023-08-08T01:29:31;99152.83;;;17.49;72.79
61474;BME280;53694;49.784;30.150;2023-08-08T01:30:33;99154.06;;;17.76;71.67
61474;BME280;53694;49.784;30.150;2023-08-08T01:31:34;99156.41;;;18.01;71.10
61474;BME280;53694;49.784;30.150;2023-08-08T01:32:36;99153.63;;;18.24;70.44
61474;BME280;53694;49.784;30.150;2023-08-08T01:33:38;99153.17;;;18.49;69.55
61474;BME280;53694;49.784;30.150;2023-08-08T01:34:40;99166.25;;;18.72;68.53
61474;BME280;53694;49.784;30.150;2023-08-08T01:35:52;99158.34;;;18.90;67.60
61474;BME280;53694;49.784;30.150;2023-08-08T01:36:58;99166.02;;;19.03;67.07
61474;BME280;53694;49.784;30.150;2023-08-08T01:38:10;99160.89;;;19.01;66.75
61474;BME280;53694;49.784;30.150;2023-08-08T01:39:14;99159.53;;;18.89;66.89
61474;BME280;53694;49.784;30.150;2023-08-08T01:40:18;99174.28;;;18.66;67.45
61474;BME280;53694;49.784;30.150;2023-08-08T01:41:21;99170.03;;;18.38;68.20
61474;BME280;53694;49.784;30.150;2023-08-08T01:42:24;99164.92;;;18.13;68.95
61474;BME280;53694;49.784;30.150;2023-08-08T01:43:26;99170.92;;;17.88;69.64
61474;BME280;53694;49.784;30.150;2023-08-08T01:44:28;99172.06;;;17.64;70.38
61474;BME280;53694;49.784;30.150;2023-08-08T01:45:30;99177.55;;;17.40;71.05
61474;BME280;53694;49.784;30.150;2023-08-08T01:46:32;99172.73;;;17.17;72.08
61474;BME280;53694;49.784;30.150;2023-08-08T01:47:35;99174.89;;;17.03;73.04
61474;BME280;53694;49.784;30.150;2023-08-08T01:48:37;99176.88;;;17.02;73.52
61474;BME280;53694;49.784;30.150;2023-08-08T01:49:38;99178.28;;;17.17;73.51
61474;BME280;53694;49.784;30.150;2023-08-08T01:50:40;99183.93;;;17.37;72.96
61474;BME280;53694;49.784;30.150;2023-08-08T01:51:41;99182.44;;;17.60;72.22
61474;BME280;53694;49.784;30.150;2023-08-08T01:52:43;99188.42;;;17.85;72.04
61474;BME280;53694;49.784;30.150;2023-08-08T01:53:44;99194.36;;;18.11;70.98
61474;BME280;53694;49.784;30.150;2023-08-08T01:54:46;99190.77;;;18.34;70.24
61474;BME280;53694;49.784;30.150;2023-08-08T01:55:47;99192.44;;;18.75;68.62
61474;BME280;53694;49.784;30.150;2023-08-08T01:56:49;99192.44;;;18.75;68.62
61474;BME280;53694;49.784;30.150;2023-08-08T01:57:50;99197.64;;;18.92;67.37
61474;BME280;53694;49.784;30.150;2023-08-08T01:58:52;99192.65;;;19.04;66.96
61474;BME280;53694;49.784;30.150;2023-08-08T01:59:53;99190.20;;;19.06;66.71
61474;BME280;53694;49.784;30.150;2023-08-08T02:00:55;99191.23;;;18.95;66.49
61474;BME280;53694;49.784;30.150;2023-08-08T02:01:56;99192.44;;;18.75;66.70
61474;BME280;53694;49.784;30.150;2023-08-08T02:02:58;99194.09;;;18.48;67.24
61474;BME280;53694;49.784;30.150;2023-08-08T02:03:59;99196.53;;;18.23;68.02
61474;BME280;53694;49.784;30.150;2023-08-08T02:05:02;99196.57;;;17.96;68.74
61474;BME280;53694;49.784;30.150;2023-08-08T02:06:04;99191.02;;;17.69;69.61
61474;BME280;53694;49.784;30.150;2023-08-08T02:07:05;99190.08;;;17.25;71.30
61474;BME280;53694;49.784;30.150;2023-08-08T02:08:07;99190.08;;;17.25;71.30
61474;BME280;53694;49.784;30.150;2023-08-08T02:09:08;99188.75;;;17.03;71.88
61474;BME280;53694;49.784;30.150;2023-08-08T02:10:10;99186.95;;;16.89;72.91
61474;BME280;53694;49.784;30.150;2023-08-08T02:11:12;99182.61;;;16.88;73.46
61474;BME280;53694;49.784;30.150;2023-08-08T02:12:13;99191.17;;;17.01;73.38
61474;BME280;53694;49.784;30.150;2023-08-08T02:13:15;99190.47;;;17.23;73.23
61474;BME280;53694;49.784;30.150;2023-08-08T02:14:16;99198.45;;;17.48;72.74
61474;BME280;53694;49.784;30.150;2023-08-08T02:15:18;99194.52;;;17.77;71.74
61474;BME280;53694;49.784;30.150;2023-08-08T02:16:19;99191.34;;;18.02;70.72
61474;BME280;53694;49.784;30.150;2023-08-08T02:17:21;99200.87;;;18.24;69.87
61474;BME280;53694;49.784;30.150;2023-08-08T02:18:23;99198.88;;;18.48;68.78
61474;BME280;53694;49.784;30.150;2023-08-08T02:19:24;99204.88;;;18.66;68.17
61474;BME280;53694;49.784;30.150;2023-08-08T02:20:26;99205.06;;;18.79;67.65
61474;BME280;53694;49.784;30.150;2023-08-08T02:21:27;99206.28;;;18.78;67.15
61474;BME280;53694;49.784;30.150;2023-08-08T02:22:29;99208.00;;;18.68;67.20
61474;BME280;53694;49.784;30.150;2023-08-08T02:23:30;99208.72;;;18.53;67.43
61474;BME280;53694;49.784;30.150;2023-08-08T02:24:32;99203.89;;;18.33;67.73
61474;BME280;53694;49.784;30.150;2023-08-08T02:25:33;99203.91;;;18.10;68.55
61474;BME280;53694;49.784;30.150;2023-08-08T02:26:35;99198.70;;;17.88;69.43
61474;BME280;53694;49.784;30.150;2023-08-08T02:27:37;99196.20;;;17.67;70.19
61474;BME280;53694;49.784;30.150;2023-08-08T02:28:38;99204.84;;;17.45;70.89
61474;BME280;53694;49.784;30.150;2023-08-08T02:29:39;99204.30;;;17.27;71.59
61474;BME280;53694;49.784;30.150;2023-08-08T02:30:41;99201.73;;;17.13;71.95
61474;BME280;53694;49.784;30.150;2023-08-08T02:31:43;99204.50;;;17.13;72.34
61474;BME280;53694;49.784;30.150;2023-08-08T02:32:44;99212.27;;;17.25;72.22
61474;BME280;53694;49.784;30.150;2023-08-08T02:33:48;99211.64;;;17.41;71.86
61474;BME280;53694;49.784;30.150;2023-08-08T02:34:50;99210.55;;;17.62;71.50
61474;BME280;53694;49.784;30.150;2023-08-08T02:35:52;99211.42;;;17.86;70.76
61474;BME280;53694;49.784;30.150;2023-08-08T02:36:53;99213.86;;;18.07;70.03
61474;BME280;53694;49.784;30.150;2023-08-08T02:37:55;99221.05;;;18.28;69.26
61474;BME280;53694;49.784;30.150;2023-08-08T02:38:57;99217.52;;;18.47;68.68
61474;BME280;53694;49.784;30.150;2023-08-08T02:39:58;99222.78;;;18.65;68.10
61474;BME280;53694;49.784;30.150;2023-08-08T02:41:00;99224.16;;;18.77;67.29
61474;BME280;53694;49.784;30.150;2023-08-08T02:42:01;99213.91;;;18.74;66.93
61474;BME280;53694;49.784;30.150;2023-08-08T02:43:03;99213.72;;;18.61;67.02
61474;BME280;53694;49.784;30.150;2023-08-08T02:44:05;99205.33;;;18.41;67.43
61474;BME280;53694;49.784;30.150;2023-08-08T02:45:07;99202.93;;;18.20;68.21
61474;BME280;53694;49.784;30.150;2023-08-08T02:46:09;99194.58;;;17.96;69.09
61474;BME280;53694;49.784;30.150;2023-08-08T02:47:10;99190.97;;;17.72;70.05
61474;BME280;53694;49.784;30.150;2023-08-08T02:48:12;99207.99;;;17.47;70.93
61474;BME280;53694;49.784;30.150;2023-08-08T02:49:13;99198.02;;;17.23;71.95
61474;BME280;53694;49.784;30.150;2023-08-08T02:50:15;99203.38;;;17.07;72.83
61474;BME280;53694;49.784;30.150;2023-08-08T02:51:16;99205.01;;;17.04;73.21
61474;BME280;53694;49.784;30.150;2023-08-08T02:52:18;99198.95;;;17.13;73.40
61474;BME280;53694;49.784;30.150;2023-08-08T02:53:19;99198.71;;;17.31;73.17
61474;BME280;53694;49.784;30.150;2023-08-08T02:54:21;99206.73;;;17.52;72.71
61474;BME280;53694;49.784;30.150;2023-08-08T02:55:22;99197.31;;;17.73;72.04
61474;BME280;53694;49.784;30.150;2023-08-08T02:56:24;99203.28;;;17.98;71.18
61474;BME280;53694;49.784;30.150;2023-08-08T02:57:25;99205.70;;;18.20;70.39
61474;BME280;53694;49.784;30.150;2023-08-08T02:58:27;99206.95;;;18.39;69.63
61474;BME280;53694;49.784;30.150;2023-08-08T02:59:29;99205.38;;;18.61;69.07
61474;BME280;53694;49.784;30.150;2023-08-08T03:00:30;99212.91;;;18.84;68.07
61474;BME280;53694;49.784;30.150;2023-08-08T03:01:32;99209.41;;;19.00;67.08
61474;BME280;53694;49.784;30.150;2023-08-08T03:02:34;99214.55;;;19.02;66.50
61474;BME280;53694;49.784;30.150;2023-08-08T03:03:35;99209.20;;;18.91;66.47
61474;BME280;53694;49.784;30.150;2023-08-08T03:04:37;99213.12;;;18.73;66.71
61474;BME280;53694;49.784;30.150;2023-08-08T03:05:38;99211.12;;;18.51;67.11
61474;BME280;53694;49.784;30.150;2023-08-08T03:06:40;99215.50;;;18.28;67.55
61474;BME280;53694;49.784;30.150;2023-08-08T03:07:41;99211.97;;;18.01;68.26
61474;BME280;53694;49.784;30.150;2023-08-08T03:08:43;99215.56;;;17.74;68.96
61474;BME280;53694;49.784;30.150;2023-08-08T03:09:44;99211.55;;;17.48;69.79
61474;BME280;53694;49.784;30.150;2023-08-08T03:10:46;99205.12;;;17.24;70.69
61474;BME280;53694;49.784;30.150;2023-08-08T03:11:47;99215.36;;;17.00;71.53
61474;BME280;53694;49.784;30.150;2023-08-08T03:12:49;99218.38;;;16.79;72.30
61474;BME280;53694;49.784;30.150;2023-08-08T03:13:50;99218.09;;;16.66;73.24
61474;BME280;53694;49.784;30.150;2023-08-08T03:14:53;99217.67;;;16.67;73.66
61474;BME280;53694;49.784;30.150;2023-08-08T03:15:54;99219.95;;;16.80;73.75
61474;BME280;53694;49.784;30.150;2023-08-08T03:16:56;99221.27;;;17.02;73.73
61474;BME280;53694;49.784;30.150;2023-08-08T03:17:57;99232.05;;;17.27;72.95
61474;BME280;53694;49.784;30.150;2023-08-08T03:18:59;99238.84;;;17.53;72.25
61474;BME280;53694;49.784;30.150;2023-08-08T03:20:01;99242.51;;;17.77;71.17
61474;BME280;53694;49.784;30.150;2023-08-08T03:21:02;99235.41;;;17.99;70.67
61474;BME280;53694;49.784;30.150;2023-08-08T03:22:04;99232.23;;;18.24;70.00
61474;BME280;53694;49.784;30.150;2023-08-08T03:23:06;99235.08;;;18.44;68.96
61474;BME280;53694;49.784;30.150;2023-08-08T03:24:07;99234.69;;;18.66;68.63
61474;BME280;53694;49.784;30.150;2023-08-08T03:25:09;99239.09;;;18.87;67.28
61474;BME280;53694;49.784;30.150;2023-08-08T03:26:10;99240.53;;;18.95;66.71
61474;BME280;53694;49.784;30.150;2023-08-08T03:27:12;99251.72;;;18.91;66.39
61474;BME280;53694;49.784;30.150;2023-08-08T03:28:13;99244.06;;;18.76;66.55
61474;BME280;53694;49.784;30.150;2023-08-08T03:29:15;99247.99;;;18.55;66.98
61474;BME280;53694;49.784;30.150;2023-08-08T03:30:17;99247.20;;;18.31;67.58
61474;BME280;53694;49.784;30.150;2023-08-08T03:31:19;99245.20;;;18.08;68.11
61474;BME280;53694;49.784;30.150;2023-08-08T03:32:22;99250.75;;;17.84;68.87
61474;BME280;53694;49.784;30.150;2023-08-08T03:33:23;99246.66;;;17.62;69.64
61474;BME280;53694;49.784;30.150;2023-08-08T03:34:25;99254.06;;;17.41;70.44
61474;BME280;53694;49.784;30.150;2023-08-08T03:35:26;99251.95;;;17.22;71.18
61474;BME280;53694;49.784;30.150;2023-08-08T03:36:28;99253.77;;;17.02;72.34
61474;BME280;53694;49.784;30.150;2023-08-08T03:37:29;99261.41;;;16.90;73.15
61474;BME280;53694;49.784;30.150;2023-08-08T03:38:31;99260.23;;;16.91;73.81
61474;BME280;53694;49.784;30.150;2023-08-08T03:39:33;99268.77;;;17.08;73.64
61474;BME280;53694;49.784;30.150;2023-08-08T03:40:34;99281.19;;;17.30;73.02
61474;BME280;53694;49.784;30.150;2023-08-08T03:41:36;99275.72;;;17.54;72.40
61474;BME280;53694;49.784;30.150;2023-08-08T03:42:37;99278.61;;;17.77;71.59
61474;BME280;53694;49.784;30.150;2023-08-08T03:43:39;99277.92;;;17.96;70.72
61474;BME280;53694;49.784;30.150;2023-08-08T03:44:41;99273.24;;;18.17;70.12
61474;BME280;53694;49.784;30.150;2023-08-08T03:45:44;99282.88;;;18.36;69.27
61474;BME280;53694;49.784;30.150;2023-08-08T03:46:46;99284.98;;;18.52;68.87
61474;BME280;53694;49.784;30.150;2023-08-08T03:47:47;99291.87;;;18.67;68.17
61474;BME280;53694;49.784;30.150;2023-08-08T03:48:49;99296.56;;;18.73;67.36
61474;BME280;53694;49.784;30.150;2023-08-08T03:49:50;99295.00;;;18.69;67.36
61474;BME280;53694;49.784;30.150;2023-08-08T03:50:52;99303.60;;;18.55;67.75
61474;BME280;53694;49.784;30.150;2023-08-08T03:51:53;99294.41;;;18.34;68.37
61474;BME280;53694;49.784;30.150;2023-08-08T03:52:55;99300.68;;;18.15;68.85
61474;BME280;53694;49.784;30.150;2023-08-08T03:53:56;99290.72;;;17.90;69.44
61474;BME280;53694;49.784;30.150;2023-08-08T03:54:58;99296.16;;;17.67;70.22
61474;BME280;53694;49.784;30.150;2023-08-08T03:55:59;99298.86;;;17.43;71.22
61474;BME280;53694;49.784;30.150;2023-08-08T03:57:01;99298.73;;;17.20;72.13
61474;BME280;53694;49.784;30.150;2023-08-08T03:58:03;99291.39;;;17.03;73.00
61474;BME280;53694;49.784;30.150;2023-08-08T03:59:04;99304.12;;;17.00;73.63
61474;BME280;53694;49.784;30.150;2023-08-08T04:00:06;99305.63;;;17.08;73.74
61474;BME280;53694;49.784;30.150;2023-08-08T04:01:08;99297.88;;;17.27;73.51
61474;BME280;53694;49.784;30.150;2023-08-08T04:02:10;99302.80;;;17.46;73.05
61474;BME280;53694;49.784;30.150;2023-08-08T04:03:15;99302.88;;;17.69;72.64
61474;BME280;53694;49.784;30.150;2023-08-08T04:04:17;99297.80;;;17.95;72.07
61474;BME280;53694;49.784;30.150;2023-08-08T04:05:19;99306.92;;;18.22;70.98
61474;BME280;53694;49.784;30.150;2023-08-08T04:06:20;99304.93;;;18.46;69.96
61474;BME280;53694;49.784;30.150;2023-08-08T04:07:22;99315.34;;;18.66;69.11
61474;BME280;53694;49.784;30.150;2023-08-08T04:08:23;99316.33;;;18.79;68.10
61474;BME280;53694;49.784;30.150;2023-08-08T04:09:25;99315.40;;;18.86;67.65
61474;BME280;53694;49.784;30.150;2023-08-08T04:10:26;99312.33;;;18.80;67.77
61474;BME280;53694;49.784;30.150;2023-08-08T04:11:28;99315.69;;;18.68;67.60
61474;BME280;53694;49.784;30.150;2023-08-08T04:12:29;99317.27;;;18.45;68.11
61474;BME280;53694;49.784;30.150;2023-08-08T04:13:31;99317.66;;;18.20;69.06
61474;BME280;53694;49.784;30.150;2023-08-08T04:14:32;99313.25;;;17.96;70.13
61474;BME280;53694;49.784;30.150;2023-08-08T04:15:34;99316.33;;;17.74;71.04
61474;BME280;53694;49.784;30.150;2023-08-08T04:16:36;99318.89;;;17.58;72.09
61474;BME280;53694;49.784;30.150;2023-08-08T04:17:37;99323.06;;;17.43;73.01
61474;BME280;53694;49.784;30.150;2023-08-08T04:18:39;99326.23;;;17.41;73.21
61474;BME280;53694;49.784;30.150;2023-08-08T04:19:40;99325.33;;;17.52;73.21
61474;BME280;53694;49.784;30.150;2023-08-08T04:20:42;99327.88;;;17.69;72.77
61474;BME280;53694;49.784;30.150;2023-08-08T04:21:44;99322.48;;;17.89;72.43
61474;BME280;53694;49.784;30.150;2023-08-08T04:22:45;99322.91;;;18.15;71.48
61474;BME280;53694;49.784;30.150;2023-08-08T04:23:47;99325.71;;;18.38;69.70
61474;BME280;53694;49.784;30.150;2023-08-08T04:24:48;99323.02;;;18.58;69.04
61474;BME280;53694;49.784;30.150;2023-08-08T04:25:50;99328.30;;;18.76;68.24
61474;BME280;53694;49.784;30.150;2023-08-08T04:26:51;99324.13;;;18.88;67.82
61474;BME280;53694;49.784;30.150;2023-08-08T04:27:53;99328.13;;;18.87;67.47
61474;BME280;53694;49.784;30.150;2023-08-08T04:28:54;99329.45;;;18.79;67.89
61474;BME280;53694;49.784;30.150;2023-08-08T04:29:56;99327.30;;;18.63;68.37
61474;BME280;53694;49.784;30.150;2023-08-08T04:30:57;99333.17;;;18.45;69.00
61474;BME280;53694;49.784;30.150;2023-08-08T04:31:59;99328.30;;;18.26;69.73
61474;BME280;53694;49.784;30.150;2023-08-08T04:33:00;99331.78;;;18.06;70.29
61474;BME280;53694;49.784;30.150;2023-08-08T04:34:02;99333.60;;;17.89;70.94
61474;BME280;53694;49.784;30.150;2023-08-08T04:35:04;99329.43;;;17.74;71.77
61474;BME280;53694;49.784;30.150;2023-08-08T04:36:06;99334.69;;;17.65;72.24
61474;BME280;53694;49.784;30.150;2023-08-08T04:37:07;99326.70;;;17.67;72.25
61474;BME280;53694;49.784;30.150;2023-08-08T04:38:09;99336.11;;;17.80;72.09
61474;BME280;53694;49.784;30.150;2023-08-08T04:39:10;99325.88;;;18.01;71.47
61474;BME280;53694;49.784;30.150;2023-08-08T04:40:12;99331.08;;;18.26;70.73
61474;BME280;53694;49.784;30.150;2023-08-08T04:41:14;99331.84;;;18.53;69.95
61474;BME280;53694;49.784;30.150;2023-08-08T04:42:16;99329.02;;;18.80;69.27
61474;BME280;53694;49.784;30.150;2023-08-08T04:43:17;99330.58;;;19.05;67.84
61474;BME280;53694;49.784;30.150;2023-08-08T04:44:18;99330.67;;;19.21;67.37
61474;BME280;53694;49.784;30.150;2023-08-08T04:45:20;99334.52;;;19.27;66.61
61474;BME280;53694;49.784;30.150;2023-08-08T04:46:22;99336.23;;;19.21;66.66
61474;BME280;53694;49.784;30.150;2023-08-08T04:47:23;99336.08;;;19.08;66.92
61474;BME280;53694;49.784;30.150;2023-08-08T04:48:24;99345.54;;;18.91;67.44
61474;BME280;53694;49.784;30.150;2023-08-08T04:49:26;99342.27;;;18.72;68.35
61474;BME280;53694;49.784;30.150;2023-08-08T04:50:27;99346.96;;;18.52;68.78
61474;BME280;53694;49.784;30.150;2023-08-08T04:51:29;99344.44;;;18.34;69.62
61474;BME280;53694;49.784;30.150;2023-08-08T04:52:30;99348.23;;;18.20;70.33
61474;BME280;53694;49.784;30.150;2023-08-08T04:53:32;99344.81;;;18.09;71.05
61474;BME280;53694;49.784;30.150;2023-08-08T04:54:33;99344.55;;;18.00;71.60
61474;BME280;53694;49.784;30.150;2023-08-08T04:55:35;99351.75;;;17.97;72.07
61474;BME280;53694;49.784;30.150;2023-08-08T04:56:37;99345.24;;;18.08;71.80
61474;BME280;53694;49.784;30.150;2023-08-08T04:57:38;99355.69;;;18.27;70.96
61474;BME280;53694;49.784;30.150;2023-08-08T04:58:40;99356.09;;;18.53;70.23
61474;BME280;53694;49.784;30.150;2023-08-08T04:59:41;99351.28;;;18.80;69.25
61474;BME280;53694;49.784;30.150;2023-08-08T05:00:43;99363.47;;;19.10;68.09
61474;BME280;53694;49.784;30.150;2023-08-08T05:01:44;99353.44;;;19.36;67.18
61474;BME280;53694;49.784;30.150;2023-08-08T05:02:46;99363.74;;;19.59;66.86
61474;BME280;53694;49.784;30.150;2023-08-08T05:03:47;99351.61;;;19.69;66.27
61474;BME280;53694;49.784;30.150;2023-08-08T05:04:49;99352.83;;;19.68;65.64
61474;BME280;53694;49.784;30.150;2023-08-08T05:05:50;99364.11;;;19.61;65.82
61474;BME280;53694;49.784;30.150;2023-08-08T05:06:52;99364.38;;;19.46;66.26
61474;BME280;53694;49.784;30.150;2023-08-08T05:07:54;99365.52;;;19.29;66.86
61474;BME280;53694;49.784;30.150;2023-08-08T05:08:55;99370.98;;;19.13;67.40
61474;BME280;53694;49.784;30.150;2023-08-08T05:09:57;99364.88;;;18.98;67.87
61474;BME280;53694;49.784;30.150;2023-08-08T05:10:58;99369.53;;;18.81;67.83
61474;BME280;53694;49.784;30.150;2023-08-08T05:12:00;99370.19;;;18.65;68.52
61474;BME280;53694;49.784;30.150;2023-08-08T05:13:02;99369.99;;;18.53;69.21
61474;BME280;53694;49.784;30.150;2023-08-08T05:14:03;99372.49;;;18.43;69.88
61474;BME280;53694;49.784;30.150;2023-08-08T05:15:05;99365.50;;;18.35;70.47
61474;BME280;53694;49.784;30.150;2023-08-08T05:16:07;99371.94;;;18.29;70.83
61474;BME280;53694;49.784;30.150;2023-08-08T05:17:09;99365.29;;;18.22;71.13
61474;BME280;53694;49.784;30.150;2023-08-08T05:18:10;99364.08;;;18.23;71.65
61474;BME280;53694;49.784;30.150;2023-08-08T05:19:12;99371.84;;;18.36;70.81
61474;BME280;53694;49.784;30.150;2023-08-08T05:20:14;99372.29;;;18.58;70.56
61474;BME280;53694;49.784;30.150;2023-08-08T05:21:15;99371.05;;;18.86;69.25
61474;BME280;53694;49.784;30.150;2023-08-08T05:22:17;99375.33;;;19.14;68.27
61474;BME280;53694;49.784;30.150;2023-08-08T05:23:18;99365.23;;;19.43;67.34
61474;BME280;53694;49.784;30.150;2023-08-08T05:24:20;99371.89;;;19.69;66.35
61474;BME280;53694;49.784;30.150;2023-08-08T05:25:21;99367.67;;;19.81;65.77